Time;durP1;ratioP1;P1;durP2;ratioP2;P2;SDS_P1;SDS_P2;PMS_P1;PMS_P2;Temp;Humidity;BMP_temperature;BMP_pressure;BME280_temperature;BME280_humidity;BME280_pressure;Samples;Min_cycle;Max_cycle;Signal;HPM_P1;HPM_P2
2021/11/16 00:01:52;;;;;;;36.25;11.88;;;;;;;5.28;87.08;102829.47;1770010;80;21135;-59
2021/11/16 00:04:19;;;;;;;36.53;11.20;;;;;;;5.25;86.41;102830.73;1767171;80;21108;-59
2021/11/16 00:06:51;;;;;;;25.37;11.65;;;;;;;5.23;87.21;102838.67;1771461;80;21024;-59
2021/11/16 00:09:15;;;;;;;26.45;11.48;;;;;;;5.23;86.25;102835.12;1769358;79;21043;-59
2021/11/16 00:11:41;;;;;;;34.63;12.45;;;;;;;5.22;86.96;102830.23;1767906;79;21772;-58
2021/11/16 00:14:09;;;;;;;39.15;11.40;;;;;;;5.20;87.64;102831.95;1771970;79;21437;-59
2021/11/16 00:16:37;;;;;;;24.23;11.03;;;;;;;5.20;87.64;102831.95;1771308;80;21012;-59
2021/11/16 00:19:07;;;;;;;21.05;9.63;;;;;;;5.19;87.70;102829.25;1769361;80;21092;-59
2021/11/16 00:21:34;;;;;;;22.80;10.40;;;;;;;5.14;86.89;102822.08;1765559;80;21470;-59
2021/11/16 00:24:10;;;;;;;24.72;10.68;;;;;;;5.07;86.75;102817.52;1774498;79;21224;-59
2021/11/16 00:26:32;;;;;;;31.42;10.95;;;;;;;5.07;86.75;102817.52;1768808;80;21044;-59
2021/11/16 00:28:59;;;;;;;25.02;10.03;;;;;;;5.06;87.23;102809.48;1769431;80;21101;-58
2021/11/16 00:31:25;;;;;;;29.27;10.13;;;;;;;5.04;87.58;102814.79;1773634;80;21114;-58
2021/11/16 00:33:53;;;;;;;30.75;10.93;;;;;;;4.99;87.25;102821.33;1769600;80;21028;-58
2021/11/16 00:36:20;;;;;;;40.80;11.12;;;;;;;4.99;87.25;102821.33;1768832;80;21539;-57
2021/11/16 00:38:46;;;;;;;22.70;9.90;;;;;;;4.96;87.94;102805.73;1772444;80;21486;-58
2021/11/16 00:41:13;;;;;;;25.30;10.48;;;;;;;4.96;87.94;102805.73;1765504;80;21508;-58
2021/11/16 00:43:39;;;;;;;23.10;10.00;;;;;;;4.96;87.75;102837.64;1772053;80;21054;-58
2021/11/16 00:46:06;;;;;;;22.62;10.18;;;;;;;4.95;87.23;102825.20;1769853;80;21087;-58
2021/11/16 00:48:33;;;;;;;18.50;9.65;;;;;;;4.90;87.14;102835.77;1773517;80;21203;-58
2021/11/16 00:51:02;;;;;;;21.05;9.30;;;;;;;4.90;87.14;102835.77;1765328;79;21048;-58
2021/11/16 00:53:32;;;;;;;20.52;10.25;;;;;;;4.91;86.58;102787.05;1772628;79;21085;-58
2021/11/16 00:55:59;;;;;;;18.87;9.35;;;;;;;4.92;86.84;102812.77;1765657;80;21377;-58
2021/11/16 00:58:26;;;;;;;22.70;10.08;;;;;;;4.93;87.08;102810.98;1768116;80;21036;-58
2021/11/16 01:00:52;;;;;;;23.57;10.23;;;;;;;4.93;87.14;102803.02;1768746;80;21106;-58
2021/11/16 01:03:20;;;;;;;45.33;10.50;;;;;;;4.95;87.43;102817.23;1767015;80;20992;-59
2021/11/16 01:05:46;;;;;;;22.35;9.63;;;;;;;4.96;87.25;102803.07;1757153;80;21123;-58
2021/11/16 01:08:13;;;;;;;26.17;8.68;;;;;;;4.97;87.09;102829.70;1770731;79;21061;-58
2021/11/16 01:10:41;;;;;;;24.40;9.40;;;;;;;4.97;87.26;102818.16;1764199;80;21055;-58
2021/11/16 01:13:09;;;;;;;27.45;9.33;;;;;;;4.96;87.41;102810.63;1759347;80;21157;-58
2021/11/16 01:15:39;;;;;;;23.98;9.68;;;;;;;4.99;87.02;102815.13;1765892;80;21130;-59
2021/11/16 01:18:05;;;;;;;28.55;10.60;;;;;;;4.99;87.02;102815.13;1774860;80;21485;-59
2021/11/16 01:20:34;;;;;;;49.90;10.35;;;;;;;4.98;86.89;102801.38;1762453;80;21401;-59
2021/11/16 01:23:02;;;;;;;21.57;8.70;;;;;;;4.95;85.27;102796.88;1764224;80;21555;-59
2021/11/16 01:25:29;;;;;;;31.33;10.08;;;;;;;4.95;85.27;102796.88;1767174;80;21133;-58
2021/11/16 01:28:00;;;;;;;30.32;9.58;;;;;;;4.93;86.03;102838.91;1772118;80;21012;-59
2021/11/16 01:30:26;;;;;;;26.25;9.35;;;;;;;4.90;86.47;102797.63;1768671;80;21116;-60
2021/11/16 01:33:08;;;;;;;19.57;9.18;;;;;;;4.90;86.47;102797.63;1773551;80;21064;-60
2021/11/16 01:35:37;;;;;;;25.10;8.53;;;;;;;4.88;87.14;102814.90;1766494;80;21226;-60
2021/11/16 01:38:05;;;;;;;21.27;9.03;;;;;;;4.84;85.73;102823.23;1749248;80;21720;-60
2021/11/16 01:40:34;;;;;;;19.77;8.60;;;;;;;4.84;85.73;102823.23;1760542;79;22199;-59
2021/11/16 01:43:02;;;;;;;21.87;8.50;;;;;;;4.77;85.87;102817.31;1756828;81;21116;-60
2021/11/16 01:45:30;;;;;;;26.85;8.05;;;;;;;4.77;85.87;102817.31;1761012;79;21061;-60
2021/11/16 01:47:56;;;;;;;29.35;8.60;;;;;;;4.74;85.70;102813.23;1755789;80;20984;-60
2021/11/16 01:50:23;;;;;;;28.80;8.55;;;;;;;4.71;86.19;102831.77;1749256;79;21152;-60
2021/11/16 01:52:51;;;;;;;22.85;7.95;;;;;;;4.68;86.28;102825.06;1757046;80;21581;-59
2021/11/16 01:55:21;;;;;;;15.25;6.95;;;;;;;4.65;85.88;102838.28;1763090;81;21311;-59
2021/11/16 01:57:48;;;;;;;19.32;7.92;;;;;;;4.64;86.08;102835.16;1764267;81;21069;-59
2021/11/16 02:00:19;;;;;;;21.12;7.67;;;;;;;4.64;86.09;102852.44;1752315;81;21040;-59
2021/11/16 02:02:46;;;;;;;27.15;7.97;;;;;;;4.64;86.15;102816.56;1764904;80;21099;-59
2021/11/16 02:05:12;;;;;;;23.85;8.40;;;;;;;4.66;86.77;102828.12;1757454;80;21451;-59
2021/11/16 02:07:45;;;;;;;17.62;7.90;;;;;;;4.67;86.76;102820.20;1757687;79;21036;-61
2021/11/16 02:10:11;;;;;;;21.37;8.18;;;;;;;4.67;86.38;102830.83;1753575;80;21408;-60
2021/11/16 02:12:38;;;;;;;31.07;8.48;;;;;;;4.68;86.59;102825.06;1760361;81;21566;-59
2021/11/16 02:15:10;;;;;;;21.45;7.65;;;;;;;4.68;85.99;102860.94;1756502;80;21195;-60
2021/11/16 02:17:37;;;;;;;19.52;8.48;;;;;;;4.67;85.87;102825.92;1761317;80;21878;-60
2021/11/16 02:20:06;;;;;;;34.58;8.23;;;;;;;4.65;86.14;102849.83;1763908;80;21009;-60
2021/11/16 02:22:33;;;;;;;16.57;7.87;;;;;;;4.66;86.52;102825.46;1760116;80;21001;-61
2021/11/16 02:25:00;;;;;;;14.53;7.72;;;;;;;4.67;86.94;102837.47;1760135;81;21508;-60
2021/11/16 02:27:27;;;;;;;23.83;7.92;;;;;;;4.69;87.03;102838.81;1756664;80;21112;-60
2021/11/16 02:29:53;;;;;;;21.97;7.62;;;;;;;4.67;86.80;102830.83;1764397;81;21041;-60
2021/11/16 02:32:20;;;;;;;19.85;7.62;;;;;;;4.68;86.17;102862.27;1761377;79;21045;-60
2021/11/16 02:34:50;;;;;;;17.77;8.03;;;;;;;4.61;85.54;102821.81;1763395;81;21072;-60
2021/11/16 02:37:16;;;;;;;18.48;7.92;;;;;;;4.61;85.54;102821.81;1764480;79;21324;-58
2021/11/16 02:39:43;;;;;;;22.00;7.50;;;;;;;4.61;86.03;102832.44;1766172;80;21777;-59
2021/11/16 02:42:10;;;;;;;18.65;7.42;;;;;;;4.58;86.05;102883.31;1763482;79;21512;-58
2021/11/16 02:44:36;;;;;;;24.35;7.20;;;;;;;4.57;85.94;102827.47;1763939;80;21035;-59
2021/11/16 02:47:04;;;;;;;22.00;7.42;;;;;;;4.55;85.87;102827.45;1733993;80;21006;-58
2021/11/16 02:49:32;;;;;;;15.05;6.87;;;;;;;4.55;85.94;102841.16;1767653;80;20981;-58
2021/11/16 02:51:59;;;;;;;13.72;6.85;;;;;;;4.52;86.18;102853.92;1762973;80;21082;-58
2021/11/16 02:54:26;;;;;;;14.20;6.95;;;;;;;4.51;85.61;102841.50;1763030;80;21088;-57
2021/11/16 02:56:52;;;;;;;18.50;7.15;;;;;;;4.50;85.70;102842.36;1767004;80;21565;-58
2021/11/16 02:59:19;;;;;;;28.12;7.75;;;;;;;4.47;85.46;102833.00;1765427;80;21014;-60
2021/11/16 03:01:46;;;;;;;16.75;7.22;;;;;;;4.44;84.98;102847.53;1762334;79;21561;-59
2021/11/16 03:04:23;;;;;;;17.02;7.17;;;;;;;4.40;85.26;102835.05;1765287;80;21091;-60
2021/11/16 03:06:49;;;;;;;31.17;7.40;;;;;;;4.38;85.33;102843.41;1765029;80;21084;-58
2021/11/16 03:09:16;;;;;;;16.70;6.90;;;;;;;4.37;85.32;102843.83;1765854;80;20923;-57
2021/11/16 03:11:42;;;;;;;46.63;7.05;;;;;;;4.37;85.23;102841.17;1768677;80;21060;-58
2021/11/16 03:14:10;;;;;;;40.05;8.18;;;;;;;4.38;85.52;102840.75;1766986;80;21045;-59
2021/11/16 03:16:37;;;;;;;29.07;7.72;;;;;;;4.38;85.83;102838.98;1765303;80;21132;-60
2021/11/16 03:19:03;;;;;;;23.70;7.53;;;;;;;4.40;85.72;102840.36;1763255;80;21032;-59
2021/11/16 03:21:30;;;;;;;16.70;6.97;;;;;;;4.41;85.70;102843.48;1765868;80;21064;-59
2021/11/16 03:23:58;;;;;;;16.73;6.85;;;;;;;4.42;85.31;102843.95;1764625;80;21048;-60
2021/11/16 03:26:26;;;;;;;28.62;7.65;;;;;;;4.41;85.54;102843.48;1758566;80;22006;-59
2021/11/16 03:28:53;;;;;;;17.35;6.97;;;;;;;4.42;85.87;102850.59;1765026;80;21140;-60
2021/11/16 03:31:28;;;;;;;12.90;6.40;;;;;;;4.40;85.08;102856.30;1768346;80;20948;-59
2021/11/16 03:33:51;;;;;;;42.88;7.33;;;;;;;4.38;84.68;102835.44;1762447;80;21488;-59
2021/11/16 03:36:18;;;;;;;23.70;7.33;;;;;;;4.38;85.12;102851.38;1761547;80;21171;-59
2021/11/16 03:38:45;;;;;;;26.50;7.15;;;;;;;4.39;85.69;102834.58;1768267;79;21103;-59
2021/11/16 03:41:12;;;;;;;15.88;7.20;;;;;;;4.41;85.90;102840.83;1762732;80;21146;-60
2021/11/16 03:43:39;;;;;;;26.87;7.90;;;;;;;4.42;85.64;102830.25;1770014;79;21036;-61
2021/11/16 03:46:06;;;;;;;16.85;6.83;;;;;;;4.43;85.90;102829.39;1770108;80;21425;-60
2021/11/16 03:48:33;;;;;;;14.47;7.15;;;;;;;4.46;86.35;102831.20;1767260;80;21556;-59
2021/11/16 03:51:00;;;;;;;23.45;7.10;;;;;;;4.46;86.31;102831.20;1762059;80;21098;-59
2021/11/16 03:53:26;;;;;;;33.83;7.22;;;;;;;4.48;86.35;102834.79;1768620;80;21797;-59
2021/11/16 03:55:53;;;;;;;21.65;7.15;;;;;;;4.47;85.67;102824.14;1772326;80;21072;-59
2021/11/16 03:58:22;;;;;;;22.10;6.62;;;;;;;4.48;85.77;102824.61;1771333;80;21055;-59
2021/11/16 04:01:02;;;;;;;28.75;7.35;;;;;;;4.49;85.97;102832.59;1768082;79;20952;-59
2021/11/16 04:03:31;;;;;;;30.55;7.37;;;;;;;4.51;86.28;102824.23;1764711;80;21108;-59
2021/11/16 04:05:59;;;;;;;24.25;6.30;;;;;;;4.53;85.86;102845.12;1767178;80;21085;-59
2021/11/16 04:08:26;;;;;;;23.38;6.47;;;;;;;4.53;86.16;102843.79;1767757;80;21091;-60
2021/11/16 04:10:53;;;;;;;21.60;6.90;;;;;;;4.53;86.36;102842.88;1767449;79;21040;-60
2021/11/16 04:13:20;;;;;;;18.40;6.42;;;;;;;4.52;85.92;102841.97;1767753;80;21101;-58
2021/11/16 04:15:48;;;;;;;17.23;5.58;;;;;;;4.51;85.92;102841.95;1770006;80;21801;-59
2021/11/16 04:18:15;;;;;;;19.37;5.78;;;;;;;4.47;86.21;102838.31;1766443;80;21541;-59
2021/11/16 04:20:45;;;;;;;31.77;6.92;;;;;;;4.50;86.66;102837.49;1769124;80;20975;-59
2021/11/16 04:23:13;;;;;;;14.90;5.60;;;;;;;4.49;86.13;102837.03;1766815;80;21520;-60
2021/11/16 04:25:41;;;;;;;22.32;5.85;;;;;;;4.49;86.13;102837.03;1767623;79;21097;-60
2021/11/16 04:28:10;;;;;;;14.33;5.33;;;;;;;4.47;85.49;102859.56;1771942;80;21052;-60
2021/11/16 04:30:37;;;;;;;26.80;6.35;;;;;;;4.46;84.86;102851.57;1768107;80;21651;-59
2021/11/16 04:33:05;;;;;;;19.65;6.03;;;;;;;4.38;84.82;102854.92;1771544;80;21019;-59
2021/11/16 04:35:31;;;;;;;29.82;6.00;;;;;;;4.38;84.82;102854.92;1765517;80;21044;-58
2021/11/16 04:38:02;;;;;;;24.50;6.42;;;;;;;4.36;85.50;102850.45;1756147;80;21577;-60
2021/11/16 04:40:32;;;;;;;21.30;5.60;;;;;;;4.35;85.14;102854.84;1761946;79;21754;-59
2021/11/16 04:43:03;;;;;;;18.82;5.67;;;;;;;4.35;85.14;102854.84;1754995;81;21145;-60
2021/11/16 04:45:29;;;;;;;18.98;5.80;;;;;;;4.30;85.55;102865.34;1760078;80;21012;-59
2021/11/16 04:48:00;;;;;;;25.17;5.92;;;;;;;4.30;85.55;102865.34;1757552;81;21037;-59
2021/11/16 05:03:42;;;;;;;11.63;5.15;;;;;;;4.25;84.54;102878.95;1750435;81;21097;-60
2021/11/16 05:06:10;;;;;;;14.58;5.83;;;;;;;4.23;84.75;102878.01;1764883;81;21056;-60
2021/11/16 05:08:43;;;;;;;24.37;5.40;;;;;;;4.23;84.61;102881.99;1727858;81;21066;-59
2021/11/16 05:11:10;;;;;;;34.65;5.80;;;;;;;4.23;84.72;102885.98;1749540;81;21563;-60
2021/11/16 05:13:38;;;;;;;18.70;5.42;;;;;;;4.24;84.74;102883.79;1755754;80;21087;-59
2021/11/16 05:16:08;;;;;;;28.95;5.30;;;;;;;4.24;84.91;102872.28;1694606;82;21026;-61
2021/11/16 05:18:35;;;;;;;26.60;5.60;;;;;;;4.27;85.28;102893.16;1760902;81;21100;-58
2021/11/16 05:21:01;;;;;;;16.48;5.00;;;;;;;4.29;85.34;102883.47;1760079;80;21143;-61
2021/11/16 05:23:28;;;;;;;26.52;6.33;;;;;;;4.33;84.99;102901.72;1764203;81;21025;-60
2021/11/16 05:25:54;;;;;;;15.93;5.22;;;;;;;4.35;84.87;102887.17;1763698;80;21031;-62
2021/11/16 05:28:22;;;;;;;28.50;6.85;;;;;;;4.35;84.94;102896.47;1748864;81;21595;-59
2021/11/16 05:30:48;;;;;;;12.18;4.00;;;;;;;4.36;85.68;102882.33;1759262;80;21104;-61
2021/11/16 05:33:15;;;;;;;31.50;5.80;;;;;;;4.39;85.27;102898.33;1753224;81;21516;-60
2021/11/16 05:35:42;;;;;;;11.43;4.72;;;;;;;4.39;84.90;102888.59;1754875;81;21092;-60
2021/11/16 05:38:22;;;;;;;18.10;5.40;;;;;;;4.42;84.90;102894.00;1751206;79;21059;-61
2021/11/16 05:40:48;;;;;;;15.68;4.83;;;;;;;4.45;85.46;102906.45;1754558;81;21500;-59
2021/11/16 05:43:15;;;;;;;26.75;5.30;;;;;;;4.47;85.31;102914.47;1753039;81;21090;-58
2021/11/16 05:45:42;;;;;;;26.45;5.62;;;;;;;4.47;84.98;102907.38;1761037;81;21174;-59
2021/11/16 05:48:10;;;;;;;28.15;5.40;;;;;;;4.50;84.61;102916.75;1759884;80;21147;-60
2021/11/16 05:50:37;;;;;;;17.12;5.58;;;;;;;4.51;84.45;102914.56;1761851;81;21102;-58
2021/11/16 05:53:05;;;;;;;19.23;5.70;;;;;;;4.52;84.53;102913.70;1758837;81;22170;-59
2021/11/16 05:55:32;;;;;;;24.60;5.70;;;;;;;4.52;84.22;102907.06;1760936;80;21502;-58
2021/11/16 05:57:59;;;;;;;38.83;6.78;;;;;;;4.52;84.42;102915.03;1760901;80;21071;-59
2021/11/16 06:00:26;;;;;;;20.80;5.87;;;;;;;4.54;84.88;102923.97;1757927;80;20993;-59
2021/11/16 06:02:53;;;;;;;32.58;6.40;;;;;;;4.58;85.04;102907.65;1756713;81;21069;-58
2021/11/16 06:05:20;;;;;;;28.50;6.60;;;;;;;4.59;84.30;102918.33;1761269;80;21037;-59
2021/11/16 06:07:47;;;;;;;20.60;6.22;;;;;;;4.61;84.20;102922.78;1758905;81;21147;-58
2021/11/16 06:10:14;;;;;;;15.98;5.65;;;;;;;4.61;84.03;102909.05;1758348;79;21168;-58
2021/11/16 06:12:41;;;;;;;31.90;6.10;;;;;;;4.59;84.09;102920.98;1754077;81;21064;-60
2021/11/16 06:15:09;;;;;;;39.30;6.95;;;;;;;4.56;84.24;102923.57;1758097;80;21064;-58
2021/11/16 06:17:43;;;;;;;16.00;5.85;;;;;;;4.57;84.51;102915.16;1761312;79;21533;-60
2021/11/16 06:20:17;;;;;;;24.60;5.65;;;;;;;4.58;84.85;102948.42;1752844;81;21103;-58
2021/11/16 06:22:43;;;;;;;19.23;5.67;;;;;;;4.62;84.79;102927.23;1753113;80;21841;-58
2021/11/16 06:25:09;;;;;;;30.65;5.90;;;;;;;4.65;84.59;102921.99;1754733;80;21060;-62
2021/11/16 06:27:36;;;;;;;14.45;7.00;;;;;;;4.67;84.76;102922.92;1752247;81;21052;-59
2021/11/16 06:30:05;;;;;;;16.27;8.33;;;;;;;4.67;84.51;102921.59;1756146;81;21021;-60
2021/11/16 06:32:33;;;;;;;14.60;6.12;;;;;;;4.64;84.91;102922.86;1719777;81;21083;-59
2021/11/16 06:34:59;;;;;;;17.55;5.92;;;;;;;4.64;85.06;102936.14;1761089;80;21848;-58
2021/11/16 06:37:26;;;;;;;17.55;5.15;;;;;;;4.64;84.80;102922.86;1756182;81;21100;-59
2021/11/16 06:39:53;;;;;;;12.33;5.12;;;;;;;4.66;84.90;102916.73;1754614;81;21040;-60
2021/11/16 06:42:20;;;;;;;25.50;5.55;;;;;;;4.72;85.22;102918.61;1755538;79;21068;-58
2021/11/16 06:44:48;;;;;;;21.80;5.30;;;;;;;4.72;85.22;102918.61;1756001;81;21072;-58
2021/11/16 06:47:15;;;;;;;16.80;5.87;;;;;;;4.72;84.59;102912.88;1756322;79;21155;-58
2021/11/16 06:49:47;;;;;;;13.50;5.47;;;;;;;4.67;84.80;102915.87;1760540;81;21493;-58
2021/11/16 06:52:11;;;;;;;23.92;6.17;;;;;;;4.66;85.85;102927.36;1755241;81;21012;-58
2021/11/16 06:54:38;;;;;;;12.55;5.08;;;;;;;4.66;85.85;102927.36;1752340;81;21041;-58
2021/11/16 06:57:06;;;;;;;7.60;4.80;;;;;;;4.67;85.56;102917.61;1756233;80;21067;-59
2021/11/16 06:59:33;;;;;;;14.40;5.35;;;;;;;4.67;85.24;102929.16;1754117;79;21552;-59
2021/11/16 07:02:00;;;;;;;13.93;5.25;;;;;;;4.66;85.18;102918.05;1752421;80;22537;-59
2021/11/16 07:04:40;;;;;;;14.13;5.78;;;;;;;4.69;86.34;102913.23;1755207;79;21068;-59
2021/11/16 07:07:07;;;;;;;16.80;5.67;;;;;;;4.68;86.70;102908.36;1754128;81;21084;-60
2021/11/16 07:09:37;;;;;;;15.40;5.55;;;;;;;4.68;87.00;102920.73;1752068;79;21069;-59
2021/11/16 07:12:12;;;;;;;14.58;5.97;;;;;;;4.61;87.05;102904.18;1750191;80;21080;-60
2021/11/16 07:14:40;;;;;;;16.05;6.12;;;;;;;4.61;87.05;102904.18;1757935;79;21011;-60
2021/11/16 07:17:10;;;;;;;17.02;5.87;;;;;;;4.53;86.98;102907.97;1756996;79;21664;-60
2021/11/16 07:19:53;;;;;;;15.23;6.12;;;;;;;4.46;87.64;102913.55;1757471;80;21087;-60
2021/11/16 07:22:27;;;;;;;17.75;5.80;;;;;;;4.44;88.04;102914.86;1757797;80;21201;-58
2021/11/16 07:25:00;;;;;;;10.48;5.50;;;;;;;4.45;88.09;102919.73;1753366;80;21653;-59
2021/11/16 07:27:45;;;;;;;13.58;4.70;;;;;;;4.50;88.10;102919.86;1757810;80;21516;-60
2021/11/16 07:30:26;;;;;;;14.10;5.12;;;;;;;4.52;87.70;102921.67;1755241;80;21611;-58
2021/11/16 07:33:02;;;;;;;17.45;5.10;;;;;;;4.57;87.13;102912.08;1756233;80;21424;-60
2021/11/16 07:35:31;;;;;;;8.93;5.03;;;;;;;4.61;87.02;102921.45;1747647;79;21794;-61
2021/11/16 07:38:02;;;;;;;10.65;4.53;;;;;;;4.63;86.51;102913.09;1752558;80;21496;-60
2021/11/16 07:40:29;;;;;;;9.08;5.22;;;;;;;4.67;86.73;102912.30;1752628;79;20909;-59
2021/11/16 07:43:06;;;;;;;14.83;5.40;;;;;;;4.70;86.49;102903.06;1757430;80;21076;-61
2021/11/16 07:45:43;;;;;;;13.25;4.60;;;;;;;4.73;86.13;102900.48;1720980;82;20989;-61
2021/11/16 07:48:18;;;;;;;16.37;5.22;;;;;;;4.74;85.94;102910.24;1751772;80;21092;-60
2021/11/16 07:50:53;;;;;;;16.65;6.30;;;;;;;4.76;86.15;102901.91;1756470;80;21169;-59
2021/11/16 07:53:22;;;;;;;;;;;;;;;4.83;85.90;102900.27;1756889;79;20898;-59
2021/11/16 07:55:57;;;;;;;9.80;4.50;;;;;;;4.78;85.77;102905.50;1758405;80;20167;-60
2021/11/16 07:58:31;;;;;;;11.12;4.50;;;;;;;4.74;85.85;102923.53;1755153;81;21083;-61
2021/11/16 08:00:55;;;;;;;12.43;4.53;;;;;;;4.76;85.93;102906.30;1750572;80;21155;-60
2021/11/16 08:03:26;;;;;;;9.65;4.55;;;;;;;4.82;85.58;102911.34;1752372;80;21815;-59
2021/11/16 08:06:11;;;;;;;13.68;4.95;;;;;;;4.88;85.29;102910.16;1757272;80;21049;-60
2021/11/16 08:11:20;;;;;;;12.35;4.53;;;;;;;4.99;85.00;102917.50;1753831;80;21132;-60
2021/11/16 08:13:53;;;;;;;11.80;4.53;;;;;;;5.02;85.16;102901.61;1751470;80;21087;-60
2021/11/16 08:16:22;;;;;;;10.78;4.40;;;;;;;5.07;84.82;102898.61;1754087;80;21605;-60
2021/11/16 08:18:55;;;;;;;14.87;4.40;;;;;;;5.10;84.35;102906.66;1755055;80;20954;-60
2021/11/16 08:21:22;;;;;;;11.38;4.20;;;;;;;5.10;84.03;102915.97;1752333;80;21075;-60
2021/11/16 08:23:56;;;;;;;9.30;3.70;;;;;;;5.13;84.53;102913.38;1753004;80;21080;-60
2021/11/16 08:26:33;;;;;;;8.30;4.10;;;;;;;5.18;84.20;102913.90;1753513;80;21064;-61
2021/11/16 08:29:01;;;;;;;9.03;4.17;;;;;;;5.20;83.38;102913.08;1752522;81;21154;-60
2021/11/16 08:31:34;;;;;;;10.63;4.03;;;;;;;5.16;83.11;102915.22;1756539;80;20961;-60
2021/11/16 08:33:59;;;;;;;9.58;3.85;;;;;;;5.14;83.25;102917.83;1750910;80;32616;-61
2021/11/16 08:36:27;;;;;;;13.35;3.95;;;;;;;5.12;83.33;102903.59;1754863;80;21577;-60
2021/11/16 08:38:58;;;;;;;11.48;3.80;;;;;;;5.15;83.65;102922.28;1759614;80;21040;-59
2021/11/16 08:41:31;;;;;;;15.20;4.45;;;;;;;5.20;83.68;102900.23;1754756;80;21824;-60
2021/11/16 08:44:22;;;;;;;18.82;4.90;;;;;;;5.22;83.22;102902.49;1753813;80;21762;-61
2021/11/16 08:46:50;;;;;;;13.75;3.65;;;;;;;5.22;83.22;102902.49;1753472;80;21067;-59
2021/11/16 08:49:28;;;;;;;10.78;3.33;;;;;;;5.24;83.29;102909.62;1757118;80;20980;-60
2021/11/16 08:51:57;;;;;;;10.98;3.87;;;;;;;5.29;83.02;102895.09;1755803;80;20994;-60
2021/11/16 08:54:35;;;;;;;15.38;3.95;;;;;;;5.34;83.09;102905.84;1755626;80;21048;-60
2021/11/16 08:57:07;;;;;;;16.02;4.40;;;;;;;5.34;83.09;102905.84;1756077;80;21489;-60
2021/11/16 08:59:36;;;;;;;10.78;3.95;;;;;;;5.37;83.20;102896.59;1738326;80;21064;-59
2021/11/16 09:02:06;;;;;;;13.62;4.50;;;;;;;5.37;82.46;102889.50;1753503;80;21068;-60
2021/11/16 09:04:39;;;;;;;8.38;3.83;;;;;;;5.36;83.18;102892.14;1756120;80;20976;-62
2021/11/16 09:07:19;;;;;;;9.23;4.05;;;;;;;5.34;82.49;102902.73;1753604;80;21461;-61
2021/11/16 09:10:06;;;;;;;7.72;4.20;;;;;;;5.30;82.76;102878.27;1751753;80;21035;-64
2021/11/16 09:12:53;;;;;;;7.80;3.65;;;;;;;5.34;83.03;102884.12;1751685;80;21095;-61
2021/11/16 09:15:44;;;;;;;15.58;4.28;;;;;;;5.34;83.21;102888.11;1755974;80;21020;-59
2021/11/16 09:18:25;;;;;;;20.90;4.62;;;;;;;5.33;83.05;102880.99;1749393;80;21076;-59
2021/11/16 09:21:04;;;;;;;7.95;4.00;;;;;;;5.37;83.12;102880.19;1745661;80;21871;-58
2021/11/16 09:23:41;;;;;;;9.98;3.72;;;;;;;5.37;83.12;102880.19;1749130;80;21309;-61
2021/11/16 09:29:09;;;;;;;9.15;4.15;;;;;;;5.32;83.26;102884.97;1748694;80;21084;-59
2021/11/16 09:31:44;;;;;;;11.20;3.90;;;;;;;5.30;82.77;102879.19;1750794;80;21088;-59
2021/11/16 09:34:18;;;;;;;;;;;;;;;5.33;83.00;102867.69;1753826;79;21073;-61
2021/11/16 09:36:58;;;;;;;13.03;4.33;;;;;;;5.34;83.25;102876.13;1748203;80;20245;-59
2021/11/16 09:39:30;;;;;;;8.58;4.22;;;;;;;5.33;83.35;102862.38;1751569;80;22610;-59
2021/11/16 09:42:08;;;;;;;12.37;4.12;;;;;;;5.39;83.32;102870.92;1754639;80;21326;-58
2021/11/16 09:44:43;;;;;;;12.90;3.77;;;;;;;5.37;83.31;102852.70;1758564;80;21432;-59
2021/11/16 09:47:23;;;;;;;6.80;3.45;;;;;;;5.41;83.52;102855.44;1762616;80;21497;-60
2021/11/16 09:50:04;;;;;;;9.88;3.33;;;;;;;5.43;83.20;102863.04;1758283;79;21398;-61
2021/11/16 09:52:43;;;;;;;11.73;3.87;;;;;;;5.48;83.31;102866.23;1735719;80;21117;-61
2021/11/16 09:55:20;;;;;;;12.95;3.55;;;;;;;5.50;83.99;102848.52;1764084;80;21425;-59
2021/11/16 09:57:52;;;;;;;6.97;2.55;;;;;;;5.54;83.99;102842.39;1759315;80;21338;-59
2021/11/16 10:00:39;;;;;;;25.37;3.50;;;;;;;5.56;81.03;102841.56;1763038;80;22139;-58
2021/11/16 10:03:20;;;;;;;25.43;3.25;;;;;;;5.61;80.81;102862.92;1726721;81;21073;-59
2021/11/16 10:05:53;;;;;;;14.93;2.87;;;;;;;5.66;81.23;102835.98;1755417;80;21123;-60
2021/11/16 10:08:24;;;;;;;7.22;2.25;;;;;;;5.72;80.63;102849.41;1765108;80;21365;-58
2021/11/16 10:10:56;;;;;;;21.57;3.42;;;;;;;5.80;78.65;102831.34;1761350;80;20956;-59
2021/11/16 10:13:26;;;;;;;10.63;2.17;;;;;;;5.85;77.95;102839.87;1766028;80;21545;-58
2021/11/16 10:15:56;;;;;;;27.85;3.08;;;;;;;5.88;75.99;102832.39;1762303;80;21081;-59
2021/11/16 10:18:25;;;;;;;4.92;2.12;;;;;;;5.94;75.79;102829.83;1762470;80;21080;-59
2021/11/16 10:20:55;;;;;;;6.92;2.35;;;;;;;5.99;75.48;102825.47;1765803;80;21651;-60
2021/11/16 10:23:45;;;;;;;6.00;2.58;;;;;;;5.99;75.68;102833.46;1762391;80;21096;-58
2021/11/16 10:26:19;;;;;;;32.23;3.40;;;;;;;5.98;76.53;102823.69;1692153;80;20970;-59
2021/11/16 10:28:48;;;;;;;22.98;3.10;;;;;;;5.97;75.48;102818.34;1759457;79;20912;-57
2021/11/16 10:31:16;;;;;;;9.30;2.12;;;;;;;5.98;75.85;102814.36;1757576;79;21146;-60
2021/11/16 10:33:49;;;;;;;11.93;2.52;;;;;;;6.01;75.28;102815.78;1758524;80;21163;-58
2021/11/16 10:36:16;;;;;;;5.60;2.65;;;;;;;6.07;74.62;102806.09;1758468;80;21413;-58
2021/11/16 10:38:57;;;;;;;7.90;2.02;;;;;;;6.11;73.09;102812.84;1735722;80;21601;-58
2021/11/16 10:41:28;;;;;;;19.20;2.60;;;;;;;6.11;72.65;102795.98;1759468;80;20965;-58
2021/11/16 10:44:04;;;;;;;5.33;1.80;;;;;;;6.15;71.60;102799.14;1755792;80;21650;-58
2021/11/16 10:46:43;;;;;;;14.28;2.40;;;;;;;6.23;71.23;102799.27;1756032;80;21096;-59
2021/11/16 10:49:16;;;;;;;4.90;1.70;;;;;;;6.33;70.66;102802.53;1756058;80;21067;-59
2021/11/16 10:51:46;;;;;;;6.35;1.75;;;;;;;6.37;70.24;102804.81;1761508;80;21522;-59
2021/11/16 10:54:13;;;;;;;3.40;1.67;;;;;;;6.40;70.25;102792.41;1760119;79;21087;-62
2021/11/16 10:57:05;;;;;;;10.70;2.27;;;;;;;6.46;70.39;102786.29;1762619;80;21056;-60
2021/11/16 10:59:38;;;;;;;5.08;2.22;;;;;;;6.52;70.65;102793.48;1762737;80;21103;-58
2021/11/16 11:02:07;;;;;;;8.43;2.50;;;;;;;6.62;70.06;102796.73;1761041;80;21620;-60
2021/11/16 11:04:40;;;;;;;6.67;2.15;;;;;;;6.69;68.68;102784.39;1713197;80;21900;-59
2021/11/16 11:07:11;;;;;;;5.97;1.82;;;;;;;6.72;67.64;102784.43;1760542;80;21024;-62
2021/11/16 11:09:38;;;;;;;37.80;3.27;;;;;;;6.76;67.44;102776.96;1761279;80;21450;-58
2021/11/16 11:12:21;;;;;;;17.00;2.90;;;;;;;6.74;67.36;102773.34;1759021;80;21111;-59
2021/11/16 11:14:53;;;;;;;16.62;2.12;;;;;;;6.72;67.21;102770.68;1739360;80;21084;-60
2021/11/16 11:17:17;;;;;;;13.88;2.02;;;;;;;6.70;67.01;102764.85;1762546;80;21166;-60
2021/11/16 11:19:43;;;;;;;9.78;2.27;;;;;;;6.68;67.54;102762.61;1765879;80;21649;-59
2021/11/16 11:24:45;;;;;;;8.25;1.80;;;;;;;6.73;67.07;102762.23;1761368;80;21112;-60
2021/11/16 11:29:57;;;;;;;7.17;1.57;;;;;;;6.67;65.44;102768.81;1758009;80;21081;-65
2021/11/16 11:32:22;;;;;;;17.02;1.90;;;;;;;6.67;66.18;102763.48;1760342;79;21781;-60
2021/11/16 11:35:01;;;;;;;4.28;2.00;;;;;;;6.68;65.54;102758.19;1755955;80;21566;-60
2021/11/16 11:37:33;;;;;;;11.20;2.60;;;;;;;6.69;65.29;102753.73;1759600;80;21802;-62
2021/11/16 11:40:09;;;;;;;18.42;2.00;;;;;;;6.72;65.62;102762.68;1764196;80;21369;-59
2021/11/16 11:42:50;;;;;;;12.93;1.92;;;;;;;6.74;64.75;102764.02;1755238;80;21762;-60
2021/11/16 11:45:30;;;;;;;17.12;1.90;;;;;;;6.70;63.47;102758.19;1752345;80;21101;-58
2021/11/16 11:48:05;;;;;;;10.72;1.95;;;;;;;6.58;63.32;102762.50;1751880;80;21069;-59
2021/11/16 11:50:57;;;;;;;2.37;1.50;;;;;;;6.43;64.01;102764.93;1751003;80;21052;-60
2021/11/16 11:53:31;;;;;;;4.25;1.57;;;;;;;6.36;64.21;102765.72;1750263;80;21049;-60
2021/11/16 11:56:07;;;;;;;4.58;1.70;;;;;;;6.25;64.95;102754.45;1749891;80;21371;-61
2021/11/16 11:58:38;;;;;;;18.20;1.95;;;;;;;6.19;65.27;102749.03;1749110;80;21088;-62
2021/11/16 12:01:08;;;;;;;13.80;1.95;;;;;;;6.16;65.51;102756.53;1751462;80;21612;-59
2021/11/16 12:03:38;;;;;;;38.13;4.08;;;;;;;6.12;65.31;102753.82;1750491;80;21024;-61
2021/11/16 12:06:04;;;;;;;17.02;2.62;;;;;;;6.04;65.16;102732.80;1751648;80;21387;-62